Time;durP1;ratioP1;P1;durP2;ratioP2;P2;SDS_P1;SDS_P2;PMS_P1;PMS_P2;Temp;Humidity;BMP_temperature;BMP_pressure;BME280_temperature;BME280_humidity;BME280_pressure;Samples;Min_cycle;Max_cycle;Signal;HPM_P1;HPM_P2
2021/04/21 00:00:10;;;;;;;10.27;6.67;;;8.50;99.90;;;;;;5048384;28;20438;-67
2021/04/21 00:02:36;;;;;;;7.50;6.33;;;8.50;99.90;;;;;;5044690;28;20765;-67
2021/04/21 00:05:05;;;;;;;6.90;6.20;;;8.40;99.90;;;;;;5050366;28;20421;-68
2021/04/21 00:07:32;;;;;;;7.23;6.53;;;8.30;99.90;;;;;;5049309;28;20421;-66
2021/04/21 00:09:59;;;;;;;9.00;6.53;;;8.30;99.90;;;;;;5041875;28;20892;-66
2021/04/21 00:12:25;;;;;;;9.40;6.57;;;8.20;99.90;;;;;;5046906;28;20425;-66
2021/04/21 00:14:53;;;;;;;7.50;6.33;;;8.20;99.90;;;;;;5047999;28;20520;-67
2021/04/21 00:17:24;;;;;;;8.20;7.03;;;8.10;99.90;;;;;;5049650;28;20453;-67
2021/04/21 00:19:52;;;;;;;6.90;6.20;;;8.10;99.90;;;;;;5046397;28;20421;-68
2021/04/21 00:22:20;;;;;;;9.53;7.87;;;8.10;99.90;;;;;;5048020;28;20907;-66
2021/04/21 00:24:48;;;;;;;7.67;6.87;;;8.10;99.90;;;;;;5043700;28;20420;-66
2021/04/21 00:27:16;;;;;;;7.70;6.47;;;8.10;99.90;;;;;;5047707;28;20907;-67
2021/04/21 00:29:47;;;;;;;8.97;7.07;;;8.10;99.90;;;;;;5045306;28;20823;-67
2021/04/21 00:32:15;;;;;;;9.63;7.40;;;8.00;99.90;;;;;;5045137;28;20538;-66
2021/04/21 00:34:43;;;;;;;9.50;6.63;;;8.00;99.90;;;;;;5048427;28;20449;-67
2021/04/21 00:37:09;;;;;;;10.57;7.23;;;8.00;99.90;;;;;;5047267;28;20949;-67
2021/04/21 00:39:39;;;;;;;9.93;6.60;;;8.00;99.90;;;;;;5049051;28;20796;-67
2021/04/21 00:42:28;;;;;;;7.50;6.50;;;8.00;99.90;;;;;;5046915;28;20426;-67
2021/04/21 00:45:01;;;;;;;9.10;7.33;;;8.00;99.90;;;;;;5044170;28;20413;-66
2021/04/21 00:48:02;;;;;;;8.83;6.50;;;8.10;99.90;;;;;;5044928;28;20452;-67
2021/04/21 00:50:33;;;;;;;8.73;7.10;;;8.10;99.90;;;;;;5044432;28;20922;-67
2021/04/21 00:53:16;;;;;;;10.40;7.23;;;8.10;99.90;;;;;;5051918;28;20410;-67
2021/04/21 00:56:29;;;;;;;8.60;6.77;;;8.00;99.90;;;;;;5046776;28;20421;-68
2021/04/21 00:59:07;;;;;;;8.73;7.37;;;8.00;99.90;;;;;;5042095;28;20505;-67
2021/04/21 01:01:36;;;;;;;8.07;6.87;;;8.00;99.90;;;;;;5043890;28;20418;-68
2021/04/21 01:04:03;;;;;;;7.80;6.83;;;7.90;99.90;;;;;;5045299;28;20445;-67
2021/04/21 01:06:43;;;;;;;8.60;7.23;;;7.80;99.90;;;;;;5047586;28;20783;-66
2021/04/21 01:09:11;;;;;;;8.47;7.57;;;7.80;99.90;;;;;;5046850;28;20444;-67
2021/04/21 01:11:44;;;;;;;8.50;7.37;;;7.70;99.90;;;;;;5045677;28;20421;-65
2021/04/21 01:14:17;;;;;;;9.57;7.50;;;7.70;99.90;;;;;;5045902;28;20439;-66
2021/04/21 01:16:45;;;;;;;8.80;6.70;;;7.70;99.90;;;;;;5046811;28;22430;-67
2021/04/21 01:19:49;;;;;;;9.13;7.93;;;7.70;99.90;;;;;;5046543;28;20498;-68
2021/04/21 01:22:25;;;;;;;9.90;6.90;;;7.70;99.90;;;;;;5044142;28;20417;-66
2021/04/21 01:25:34;;;;;;;9.50;7.33;;;7.70;99.90;;;;;;5046755;28;20416;-67
2021/04/21 01:28:02;;;;;;;9.03;7.37;;;7.60;99.90;;;;;;5023777;28;20426;-67
2021/04/21 01:30:30;;;;;;;9.33;7.37;;;7.60;99.90;;;;;;5047188;28;20440;-66
2021/04/21 01:33:01;;;;;;;10.73;7.83;;;7.60;99.90;;;;;;5049771;28;20417;-67
2021/04/21 01:35:28;;;;;;;9.17;7.73;;;7.50;99.90;;;;;;5048778;28;20496;-66
2021/04/21 01:37:57;;;;;;;8.13;7.23;;;7.50;99.90;;;;;;5047781;28;20464;-67
2021/04/21 01:40:31;;;;;;;9.40;7.23;;;7.50;99.90;;;;;;5044800;28;20961;-67
2021/04/21 01:43:04;;;;;;;7.87;7.07;;;7.50;99.90;;;;;;5045291;28;20408;-67
2021/04/21 01:45:31;;;;;;;7.90;7.07;;;7.50;99.90;;;;;;5048141;28;20958;-68
2021/04/21 01:48:03;;;;;;;8.73;7.43;;;7.50;99.90;;;;;;5046567;28;20414;-66
2021/04/21 01:50:29;;;;;;;9.90;8.17;;;7.60;99.90;;;;;;5048028;28;20421;-68
2021/04/21 01:53:03;;;;;;;9.70;7.60;;;7.60;99.90;;;;;;5048476;28;20468;-66
2021/04/21 01:55:40;;;;;;;9.03;7.90;;;7.60;99.90;;;;;;5043613;28;20179;-66
2021/04/21 01:58:11;;;;;;;9.03;7.73;;;7.60;99.90;;;;;;5045435;28;20498;-68
2021/04/21 02:00:41;;;;;;;10.37;7.13;;;7.80;99.90;;;;;;5047876;28;20418;-65
2021/04/21 02:03:28;;;;;;;7.73;6.83;;;7.90;99.90;;;;;;5048555;28;20425;-67
2021/04/21 02:06:31;;;;;;;9.70;7.93;;;8.00;99.90;;;;;;5048544;28;20435;-66
2021/04/21 02:09:32;;;;;;;8.30;7.07;;;8.10;99.90;;;;;;5051417;28;20409;-66
2021/04/21 02:12:12;;;;;;;8.80;7.50;;;8.10;99.90;;;;;;5014963;28;20485;-67
2021/04/21 02:15:04;;;;;;;8.23;7.07;;;7.90;99.90;;;;;;5052974;28;20408;-66
2021/04/21 02:17:30;;;;;;;11.77;7.70;;;7.80;99.90;;;;;;5045870;28;20492;-67
2021/04/21 02:20:04;;;;;;;8.70;7.77;;;7.70;99.90;;;;;;5050397;28;20445;-68
2021/04/21 02:22:46;;;;;;;8.60;7.67;;;7.60;99.90;;;;;;5049492;28;20245;-68
2021/04/21 02:25:24;;;;;;;8.53;7.50;;;7.50;99.90;;;;;;5053159;28;20401;-67
2021/04/21 02:28:04;;;;;;;8.97;7.57;;;7.30;99.90;;;;;;5050562;28;20422;-67
2021/04/21 02:30:39;;;;;;;11.33;7.77;;;7.20;99.90;;;;;;5049217;28;20414;-66
2021/04/21 02:33:16;;;;;;;8.43;7.50;;;7.00;99.90;;;;;;5022964;28;20836;-67
2021/04/21 02:35:55;;;;;;;11.63;7.60;;;6.90;99.90;;;;;;5048067;28;20976;-66
2021/04/21 02:38:45;;;;;;;9.37;7.53;;;6.90;99.90;;;;;;5047910;28;20771;-67
2021/04/21 02:41:19;;;;;;;10.13;8.30;;;6.90;99.90;;;;;;5049059;28;20402;-66
2021/04/21 02:44:00;;;;;;;11.07;8.33;;;6.80;99.90;;;;;;5050836;28;20919;-68
2021/04/21 02:46:33;;;;;;;10.67;8.30;;;6.80;99.90;;;;;;5046693;28;20549;-67
2021/04/21 02:49:04;;;;;;;12.03;8.63;;;6.80;99.90;;;;;;5050614;28;20421;-67
2021/04/21 02:51:50;;;;;;;10.50;8.53;;;6.70;99.90;;;;;;5051204;28;20894;-68
2021/04/21 02:54:47;;;;;;;10.67;8.70;;;6.70;99.90;;;;;;5043479;28;20414;-65
2021/04/21 02:57:54;;;;;;;9.70;8.30;;;6.70;99.90;;;;;;5044633;28;20456;-65
2021/04/21 03:00:29;;;;;;;9.60;8.27;;;6.80;99.90;;;;;;5045817;28;20497;-67
2021/04/21 03:03:04;;;;;;;9.47;8.03;;;7.10;99.90;;;;;;5034645;28;20425;-68
2021/04/21 03:05:32;;;;;;;9.50;7.83;;;7.20;99.90;;;;;;5050108;28;20710;-67
2021/04/21 03:08:07;;;;;;;9.20;8.07;;;7.10;99.90;;;;;;5044881;28;20406;-67
2021/04/21 03:10:45;;;;;;;10.33;7.93;;;7.00;99.90;;;;;;5046171;28;20418;-68
2021/04/21 03:13:28;;;;;;;9.80;8.80;;;6.90;99.90;;;;;;5050297;28;20425;-68
2021/04/21 03:16:01;;;;;;;10.83;8.73;;;6.90;99.90;;;;;;5048184;28;20421;-67
2021/04/21 03:18:30;;;;;;;11.87;9.10;;;6.80;99.90;;;;;;5047905;28;20432;-66
2021/04/21 03:21:39;;;;;;;11.23;8.93;;;6.70;99.90;;;;;;5046325;28;20802;-67
2021/04/21 03:24:10;;;;;;;12.30;9.30;;;6.70;99.90;;;;;;5028106;28;20483;-66
2021/04/21 03:26:39;;;;;;;9.07;8.07;;;6.80;99.90;;;;;;5044151;28;20905;-67
2021/04/21 03:29:09;;;;;;;10.93;9.07;;;6.80;99.90;;;;;;5045447;28;20497;-68
2021/04/21 03:31:36;;;;;;;10.03;8.17;;;6.70;99.90;;;;;;5050993;28;20421;-66
2021/04/21 03:34:07;;;;;;;12.70;9.40;;;6.70;99.90;;;;;;5047268;28;20971;-67
2021/04/21 03:36:34;;;;;;;11.77;8.73;;;6.60;99.90;;;;;;5049750;28;20533;-68
2021/04/21 03:39:01;;;;;;;10.73;9.10;;;6.60;99.90;;;;;;5046792;28;20808;-66
2021/04/21 03:41:26;;;;;;;10.37;8.93;;;6.50;99.90;;;;;;5029550;28;20426;-66
2021/04/21 03:43:52;;;;;;;10.47;9.07;;;6.50;99.90;;;;;;5050009;28;20493;-67
2021/04/21 03:46:19;;;;;;;11.20;9.20;;;6.50;99.90;;;;;;5044393;28;20690;-67
2021/04/21 03:48:46;;;;;;;15.60;9.23;;;6.40;99.90;;;;;;5049956;28;20414;-67
2021/04/21 03:51:13;;;;;;;11.93;9.40;;;6.40;99.90;;;;;;5049859;28;20432;-67
2021/04/21 03:53:40;;;;;;;10.73;9.33;;;6.40;99.90;;;;;;5046039;28;20476;-67
2021/04/21 03:56:11;;;;;;;12.47;10.03;;;6.50;99.90;;;;;;5047871;28;20416;-67
2021/04/21 03:58:38;;;;;;;12.80;10.03;;;6.50;99.90;;;;;;5045486;28;20424;-66
2021/04/21 04:01:14;;;;;;;12.13;9.87;;;6.50;99.90;;;;;;5049649;28;20474;-66
2021/04/21 04:03:45;;;;;;;11.63;9.73;;;6.50;99.90;;;;;;5049176;28;20471;-66
2021/04/21 04:06:19;;;;;;;13.00;10.17;;;6.40;99.90;;;;;;5046774;28;22402;-67
2021/04/21 04:08:49;;;;;;;11.10;9.30;;;6.40;99.90;;;;;;5046162;28;20898;-66
2021/04/21 04:11:17;;;;;;;11.87;8.93;;;6.30;99.90;;;;;;5049437;28;20430;-67
2021/04/21 04:13:51;;;;;;;13.10;9.70;;;6.40;99.90;;;;;;5049647;28;20414;-68
2021/04/21 04:16:18;;;;;;;11.60;9.20;;;6.30;99.90;;;;;;5047925;28;20448;-65
2021/04/21 04:18:43;;;;;;;12.80;9.70;;;6.30;99.90;;;;;;5049607;28;20450;-66
2021/04/21 04:21:11;;;;;;;10.90;8.80;;;6.30;99.90;;;;;;5048025;28;20500;-68
2021/04/21 04:23:39;;;;;;;11.93;9.43;;;6.20;99.90;;;;;;5046178;28;20175;-67
2021/04/21 04:26:06;;;;;;;12.10;9.33;;;6.20;99.90;;;;;;5024489;28;20426;-67
2021/04/21 04:28:33;;;;;;;13.43;9.40;;;6.30;99.90;;;;;;5047405;28;20425;-67
2021/04/21 04:31:01;;;;;;;12.10;9.53;;;6.30;99.90;;;;;;5046022;28;20505;-67
2021/04/21 04:33:28;;;;;;;11.53;9.40;;;6.30;99.90;;;;;;5043559;28;21009;-67
2021/04/21 04:35:54;;;;;;;13.03;9.57;;;6.30;99.90;;;;;;5049472;28;20812;-65
2021/04/21 04:38:19;;;;;;;11.60;10.10;;;6.30;99.90;;;;;;5046277;28;20418;-67
2021/04/21 04:40:45;;;;;;;10.50;9.40;;;6.20;99.90;;;;;;5050696;28;20428;-68
2021/04/21 04:43:12;;;;;;;14.20;9.23;;;6.20;99.90;;;;;;5045861;28;20183;-67
2021/04/21 04:45:40;;;;;;;11.57;9.20;;;6.10;99.90;;;;;;5048792;28;20182;-67
2021/04/21 04:48:14;;;;;;;12.77;10.33;;;6.10;99.90;;;;;;5045868;28;20418;-68
2021/04/21 04:50:41;;;;;;;16.47;10.23;;;6.00;99.90;;;;;;5051488;28;20793;-67
2021/04/21 04:53:08;;;;;;;13.57;10.17;;;6.00;99.90;;;;;;5048654;28;20500;-68
2021/04/21 04:55:35;;;;;;;11.10;9.43;;;6.10;99.90;;;;;;5048719;28;20421;-66
2021/04/21 04:58:04;;;;;;;10.97;9.43;;;6.10;99.90;;;;;;5044674;28;20928;-67
2021/04/21 05:00:31;;;;;;;13.47;9.77;;;6.20;99.90;;;;;;5050239;28;20426;-64
2021/04/21 05:03:15;;;;;;;12.13;10.10;;;6.20;99.90;;;;;;5050157;28;20424;-66
2021/04/21 05:05:42;;;;;;;11.53;10.23;;;6.30;99.90;;;;;;5048679;28;20726;-65
2021/04/21 05:08:12;;;;;;;17.03;9.93;;;6.40;99.90;;;;;;5050046;28;20461;-67
2021/04/21 05:10:51;;;;;;;14.47;9.97;;;6.40;99.90;;;;;;5048499;28;20904;-68
2021/04/21 05:13:21;;;;;;;17.63;10.40;;;6.40;99.90;;;;;;5049649;28;20412;-66
2021/04/21 05:15:53;;;;;;;11.27;9.83;;;6.50;99.90;;;;;;5051345;28;20414;-69
2021/04/21 05:18:31;;;;;;;15.13;10.50;;;6.50;99.90;;;;;;5051310;28;20567;-68
2021/04/21 05:21:35;;;;;;;14.10;9.60;;;6.50;99.90;;;;;;5049114;28;20420;-69
2021/04/21 05:24:18;;;;;;;11.93;9.57;;;6.50;99.90;;;;;;5046197;28;20444;-69
2021/04/21 05:27:03;;;;;;;13.73;9.93;;;6.60;99.90;;;;;;5047276;28;20449;-66
2021/04/21 05:30:00;;;;;;;18.37;10.00;;;6.70;99.90;;;;;;5020432;28;20485;-66
2021/04/21 05:32:46;;;;;;;13.63;9.83;;;6.80;99.90;;;;;;5046042;28;20430;-68
2021/04/21 05:35:49;;;;;;;14.00;10.17;;;6.80;99.90;;;;;;5051456;28;21008;-68
2021/04/21 05:39:09;;;;;;;12.57;9.57;;;6.90;99.90;;;;;;5044851;28;20539;-68
2021/04/21 05:41:53;;;;;;;13.83;10.03;;;7.00;99.90;;;;;;4934894;29;20474;-66
2021/04/21 05:44:28;;;;;;;12.90;9.47;;;7.10;99.90;;;;;;5037662;28;20423;-65
2021/04/21 05:47:23;;;;;;;13.33;9.20;;;7.20;99.90;;;;;;5048551;28;20903;-65
2021/04/21 05:50:22;;;;;;;13.73;10.37;;;7.30;99.90;;;;;;5046977;28;20410;-66
2021/04/21 05:53:31;;;;;;;14.77;10.00;;;7.50;99.90;;;;;;5051010;28;20756;-65
2021/04/21 05:56:25;;;;;;;11.70;9.97;;;7.70;99.90;;;;;;5045517;28;20829;-66
2021/04/21 05:59:29;;;;;;;12.43;10.07;;;7.80;99.90;;;;;;5048141;28;20412;-68
2021/04/21 06:01:56;;;;;;;13.73;9.37;;;7.80;99.90;;;;;;5005546;28;20417;-68
2021/04/21 06:04:23;;;;;;;13.00;10.33;;;7.90;99.90;;;;;;5050283;28;20880;-67
2021/04/21 06:06:49;;;;;;;12.20;9.33;;;8.00;99.90;;;;;;5046420;28;20418;-66
2021/04/21 06:09:15;;;;;;;14.03;9.73;;;8.10;99.90;;;;;;5048594;28;20418;-67
2021/04/21 06:11:40;;;;;;;12.07;10.43;;;8.20;99.90;;;;;;5027030;28;20210;-65
2021/04/21 06:14:07;;;;;;;17.83;10.77;;;8.30;99.90;;;;;;5047716;28;20178;-67
2021/04/21 06:16:35;;;;;;;15.83;9.90;;;8.40;99.90;;;;;;5046574;28;20197;-65
2021/04/21 06:19:08;;;;;;;12.27;10.43;;;8.60;99.90;;;;;;5050343;28;20421;-66
2021/04/21 06:21:36;;;;;;;12.90;10.63;;;8.70;99.90;;;;;;5047464;28;20429;-66
2021/04/21 06:24:02;;;;;;;16.03;10.70;;;8.90;99.90;;;;;;5047189;28;20405;-64
2021/04/21 06:26:31;;;;;;;15.90;10.57;;;9.00;99.90;;;;;;5048842;28;20497;-64
2021/04/21 06:28:59;;;;;;;18.03;11.37;;;9.10;99.90;;;;;;5044493;28;20211;-64
2021/04/21 06:31:32;;;;;;;19.73;11.77;;;9.20;99.90;;;;;;5048766;28;20968;-67
2021/04/21 06:34:04;;;;;;;23.97;12.20;;;9.30;99.90;;;;;;5042930;28;20912;-68
2021/04/21 06:36:46;;;;;;;18.37;11.00;;;9.40;99.90;;;;;;5029841;28;20474;-67
2021/04/21 06:39:17;;;;;;;14.33;11.37;;;9.50;99.90;;;;;;5030481;28;20418;-68
2021/04/21 06:41:43;;;;;;;16.40;11.60;;;9.60;99.90;;;;;;5030334;28;20447;-65
2021/04/21 06:44:09;;;;;;;15.40;11.47;;;9.70;99.90;;;;;;5030719;28;20912;-66
2021/04/21 06:46:35;;;;;;;19.83;11.90;;;9.80;99.90;;;;;;5030654;28;20480;-66
2021/04/21 06:49:02;;;;;;;16.90;12.23;;;9.80;99.90;;;;;;5032293;28;20812;-63
2021/04/21 06:51:33;;;;;;;19.60;12.03;;;9.90;99.90;;;;;;5033708;28;20645;-65
2021/04/21 06:54:00;;;;;;;20.63;12.43;;;10.10;99.90;;;;;;5016072;28;20179;-66
2021/04/21 06:56:32;;;;;;;18.83;11.53;;;10.10;99.90;;;;;;5033893;28;20199;-65
2021/04/21 06:58:58;;;;;;;19.87;11.60;;;10.30;99.90;;;;;;5034001;28;20445;-65
2021/04/21 07:01:33;;;;;;;15.63;11.03;;;10.60;99.90;;;;;;5033976;28;20563;-65
2021/04/21 07:04:15;;;;;;;18.87;11.57;;;10.70;99.90;;;;;;5034003;28;20171;-68
2021/04/21 07:06:42;;;;;;;20.37;12.30;;;10.80;99.90;;;;;;5033586;28;20661;-65
2021/04/21 07:09:15;;;;;;;22.07;12.80;;;10.80;99.90;;;;;;5033552;28;20258;-64
2021/04/21 07:11:42;;;;;;;23.83;13.03;;;10.80;99.90;;;;;;5033651;28;20186;-65
2021/04/21 07:14:17;;;;;;;21.83;13.40;;;11.00;99.90;;;;;;5033502;28;20180;-66
2021/04/21 07:16:43;;;;;;;24.00;13.30;;;11.00;99.90;;;;;;5033958;28;20201;-66
2021/04/21 07:19:13;;;;;;;20.13;13.00;;;11.10;99.90;;;;;;5033828;28;20251;-69
2021/04/21 07:21:41;;;;;;;19.07;13.13;;;11.20;99.90;;;;;;5033784;28;20167;-67
2021/04/21 07:24:10;;;;;;;25.43;15.40;;;11.40;99.90;;;;;;5033612;28;20184;-67
2021/04/21 07:26:42;;;;;;;19.80;13.77;;;11.50;99.90;;;;;;5033527;28;20605;-67
2021/04/21 07:29:15;;;;;;;20.70;15.10;;;11.60;99.90;;;;;;5033594;28;20218;-67
2021/04/21 07:31:41;;;;;;;20.50;13.87;;;11.90;99.00;;;;;;5033448;28;20541;-66
2021/04/21 07:34:11;;;;;;;16.50;14.13;;;12.00;97.50;;;;;;5033254;28;20187;-66
2021/04/21 07:36:48;;;;;;;17.17;13.70;;;12.10;97.90;;;;;;5049030;28;20214;-66
2021/04/21 07:39:15;;;;;;;19.23;13.67;;;12.20;98.00;;;;;;5049815;28;20586;-66
2021/04/21 07:41:47;;;;;;;16.30;13.87;;;12.30;96.60;;;;;;5018544;28;20641;-69
2021/04/21 07:44:33;;;;;;;15.77;12.70;;;12.40;96.20;;;;;;5051365;28;20171;-66
2021/04/21 07:47:05;;;;;;;16.13;13.83;;;12.50;95.90;;;;;;5044746;28;20175;-67
2021/04/21 07:49:32;;;;;;;17.50;14.20;;;12.60;95.80;;;;;;5050814;28;20180;-67
2021/04/21 07:51:58;;;;;;;18.67;13.77;;;12.70;95.90;;;;;;5052563;28;20175;-66
2021/04/21 07:54:25;;;;;;;17.10;13.77;;;12.80;96.00;;;;;;5050017;28;20186;-66
2021/04/21 07:56:57;;;;;;;19.13;14.07;;;12.90;95.70;;;;;;5052550;28;20202;-66
2021/04/21 07:59:22;;;;;;;16.37;14.07;;;12.90;94.80;;;;;;5050936;28;20228;-67
2021/04/21 08:01:49;;;;;;;17.47;14.20;;;13.00;94.70;;;;;;5051695;28;20258;-66
2021/04/21 08:04:16;;;;;;;18.47;14.23;;;13.10;95.10;;;;;;5015650;28;20167;-67
2021/04/21 08:06:42;;;;;;;16.77;14.93;;;13.10;95.50;;;;;;5052697;28;20629;-65
2021/04/21 08:09:08;;;;;;;19.10;15.13;;;13.20;95.20;;;;;;5052127;28;20663;-66
2021/04/21 08:11:34;;;;;;;18.73;14.90;;;13.20;95.20;;;;;;5050982;28;20257;-66
2021/04/21 08:14:00;;;;;;;19.10;14.53;;;13.30;94.20;;;;;;5052079;28;20198;-67
2021/04/21 08:16:30;;;;;;;17.40;14.33;;;13.30;94.30;;;;;;5033767;28;20696;-68
2021/04/21 08:18:56;;;;;;;18.87;15.27;;;13.40;94.70;;;;;;5051679;28;20175;-67
2021/04/21 08:21:48;;;;;;;16.17;14.43;;;13.50;93.60;;;;;;5052352;28;20640;-69
2021/04/21 08:24:15;;;;;;;17.80;13.93;;;13.60;92.30;;;;;;5041909;28;20179;-64
2021/04/21 08:26:54;;;;;;;20.70;14.47;;;13.70;91.60;;;;;;5052140;28;20175;-66
2021/04/21 08:29:20;;;;;;;17.97;13.30;;;13.90;90.80;;;;;;5048409;28;20187;-67
2021/04/21 08:31:51;;;;;;;19.00;13.47;;;13.90;87.30;;;;;;5025932;28;20230;-66
2021/04/21 08:34:18;;;;;;;16.67;13.03;;;14.00;87.40;;;;;;5048600;28;20638;-65
2021/04/21 08:36:44;;;;;;;20.30;13.90;;;14.20;83.30;;;;;;5048095;28;20214;-66
2021/04/21 08:39:11;;;;;;;19.33;13.87;;;14.20;85.20;;;;;;5048667;28;20186;-67
2021/04/21 08:41:43;;;;;;;16.53;13.83;;;14.30;84.90;;;;;;5049988;28;20250;-65
2021/04/21 08:44:09;;;;;;;17.23;12.87;;;14.30;84.80;;;;;;5050094;28;20254;-67
2021/04/21 08:46:36;;;;;;;15.07;12.97;;;14.40;83.60;;;;;;5029768;28;20215;-68
2021/04/21 08:49:04;;;;;;;15.03;12.00;;;14.50;84.60;;;;;;5048501;28;20195;-66
2021/04/21 08:51:30;;;;;;;17.43;13.30;;;14.60;84.70;;;;;;5048818;28;20260;-65
2021/04/21 08:54:15;;;;;;;20.20;13.30;;;14.80;82.90;;;;;;5047103;28;20187;-68
2021/04/21 08:56:42;;;;;;;15.60;13.13;;;14.90;81.40;;;;;;5045988;28;20209;-66
2021/04/21 08:59:10;;;;;;;23.00;14.80;;;14.90;81.70;;;;;;5047038;28;20183;-65
2021/04/21 09:01:35;;;;;;;18.77;14.43;;;14.90;82.90;;;;;;5049973;28;20175;-69
2021/04/21 09:04:02;;;;;;;18.47;14.33;;;15.00;84.40;;;;;;5050089;28;20261;-68
2021/04/21 09:06:27;;;;;;;17.60;14.23;;;15.20;81.60;;;;;;5050329;28;20211;-67
2021/04/21 09:08:55;;;;;;;21.47;14.57;;;15.40;79.40;;;;;;5050251;28;20581;-65
2021/04/21 09:11:22;;;;;;;21.40;14.90;;;15.40;79.80;;;;;;5048502;28;20517;-68
2021/04/21 09:13:48;;;;;;;18.30;14.03;;;15.60;77.70;;;;;;5049918;28;20260;-66
2021/04/21 09:16:17;;;;;;;21.70;14.50;;;15.60;76.20;;;;;;5051317;28;20261;-68
2021/04/21 09:18:43;;;;;;;19.30;14.83;;;15.60;74.40;;;;;;5046544;28;20255;-67
2021/04/21 09:21:32;;;;;;;18.93;14.20;;;15.50;75.40;;;;;;5042603;28;20210;-67
2021/04/21 09:23:58;;;;;;;16.97;14.00;;;15.60;77.90;;;;;;5047880;28;20617;-66
2021/04/21 09:26:27;;;;;;;20.23;14.27;;;15.70;76.20;;;;;;5047085;28;20240;-65
2021/04/21 09:28:54;;;;;;;18.60;14.47;;;15.70;74.50;;;;;;5046614;28;20175;-66
2021/04/21 09:31:23;;;;;;;20.83;14.97;;;15.80;76.20;;;;;;5044242;28;20637;-67
2021/04/21 09:34:18;;;;;;;18.07;14.00;;;16.00;75.10;;;;;;5047692;28;20540;-67
2021/04/21 09:36:46;;;;;;;17.93;13.63;;;16.20;74.70;;;;;;5044336;28;20564;-64
2021/04/21 09:39:16;;;;;;;21.17;14.23;;;16.30;75.30;;;;;;5039298;28;20179;-66
2021/04/21 09:41:45;;;;;;;19.10;14.30;;;16.50;74.40;;;;;;5023319;28;20171;-68
2021/04/21 09:44:27;;;;;;;18.97;14.73;;;16.60;72.80;;;;;;5028996;28;20274;-67
2021/04/21 09:46:53;;;;;;;19.47;13.47;;;16.60;70.30;;;;;;5044998;28;20178;-68
2021/04/21 09:49:34;;;;;;;18.73;14.20;;;16.70;72.90;;;;;;5035384;28;20253;-68
2021/04/21 09:52:22;;;;;;;18.93;13.60;;;16.80;68.50;;;;;;5032402;28;20171;-67
2021/04/21 09:54:50;;;;;;;19.20;14.37;;;16.90;68.60;;;;;;5026739;28;20252;-67
2021/04/21 09:57:16;;;;;;;17.83;13.47;;;17.00;66.90;;;;;;5040237;28;20593;-67
2021/04/21 09:59:52;;;;;;;21.20;13.77;;;17.10;64.50;;;;;;5040069;28;20262;-67
2021/04/21 10:02:41;;;;;;;16.00;12.80;;;17.10;65.90;;;;;;5037192;28;20254;-66
2021/04/21 10:05:24;;;;;;;17.53;13.13;;;17.30;63.20;;;;;;5039932;28;20184;-68
2021/04/21 10:08:21;;;;;;;20.10;14.37;;;17.30;63.30;;;;;;5045229;28;20187;-70
2021/04/21 10:11:01;;;;;;;20.67;14.27;;;17.50;63.00;;;;;;5030121;28;20171;-69
2021/04/21 10:13:50;;;;;;;19.70;13.83;;;17.60;63.10;;;;;;5044023;28;20179;-68
2021/04/21 10:16:16;;;;;;;18.43;12.93;;;17.70;61.90;;;;;;5021105;28;20240;-66
2021/04/21 10:18:42;;;;;;;20.83;14.80;;;17.90;60.00;;;;;;5043684;28;20190;-67
2021/04/21 10:21:09;;;;;;;19.23;14.23;;;18.10;59.90;;;;;;5046447;28;20180;-67
2021/04/21 10:23:35;;;;;;;15.93;13.47;;;18.10;58.00;;;;;;5040860;28;20175;-66
2021/04/21 10:26:02;;;;;;;18.87;12.47;;;18.10;57.30;;;;;;5049389;28;20252;-67
2021/04/21 10:28:28;;;;;;;17.67;14.27;;;18.20;58.20;;;;;;5049225;28;20517;-67
2021/04/21 10:30:55;;;;;;;15.90;13.17;;;18.40;57.00;;;;;;5046042;28;20183;-67
2021/04/21 10:33:21;;;;;;;17.10;13.77;;;18.50;55.00;;;;;;5037658;28;20186;-69
2021/04/21 10:35:48;;;;;;;16.03;12.83;;;18.50;54.40;;;;;;5046842;28;20260;-66
2021/04/21 10:38:16;;;;;;;17.97;13.00;;;18.60;54.80;;;;;;5050343;28;20207;-67
2021/04/21 10:40:42;;;;;;;16.07;13.33;;;18.70;53.30;;;;;;5047368;28;20171;-67
2021/04/21 10:43:08;;;;;;;18.13;13.10;;;18.70;53.30;;;;;;5040708;28;20172;-67
2021/04/21 10:45:51;;;;;;;16.47;13.17;;;18.60;54.80;;;;;;5051926;28;20182;-67
2021/04/21 10:48:37;;;;;;;15.20;12.40;;;18.50;54.40;;;;;;5050850;28;20179;-68
2021/04/21 10:51:03;;;;;;;21.90;12.40;;;18.60;52.90;;;;;;5047553;28;20236;-65
2021/04/21 10:53:28;;;;;;;18.00;14.07;;;18.80;51.30;;;;;;5051743;28;20187;-67
2021/04/21 10:55:54;;;;;;;15.90;13.23;;;18.80;51.40;;;;;;5051095;28;20265;-67
2021/04/21 10:58:20;;;;;;;16.13;12.90;;;18.70;51.70;;;;;;5046514;28;20235;-66
2021/04/21 11:00:50;;;;;;;16.53;12.67;;;18.90;52.60;;;;;;5046747;28;20222;-70
2021/04/21 11:03:19;;;;;;;16.23;13.57;;;18.90;51.90;;;;;;5050976;28;20258;-67
2021/04/21 11:05:52;;;;;;;16.17;12.73;;;19.00;50.90;;;;;;5045426;28;20186;-68
2021/04/21 11:08:22;;;;;;;14.90;11.90;;;18.90;51.30;;;;;;5046239;28;20189;-68
2021/04/21 11:10:54;;;;;;;14.70;12.27;;;18.90;51.30;;;;;;5049950;28;20191;-66
2021/04/21 11:13:35;;;;;;;15.83;12.13;;;18.90;50.50;;;;;;5047746;28;20183;-66
2021/04/21 11:16:06;;;;;;;14.10;11.97;;;18.70;51.10;;;;;;5046263;28;20175;-66
2021/04/21 11:18:33;;;;;;;9.73;8.23;;;18.60;51.80;;;;;;5048727;28;20183;-68
2021/04/21 11:21:08;;;;;;;11.27;7.37;;;18.50;51.60;;;;;;5052086;28;20214;-65
2021/04/21 11:24:01;;;;;;;8.17;6.20;;;18.30;51.60;;;;;;5049332;28;20678;-68
2021/04/21 11:26:28;;;;;;;11.07;6.23;;;18.10;52.70;;;;;;5053789;28;20643;-66
2021/04/21 11:29:08;;;;;;;5.97;5.30;;;18.00;53.10;;;;;;5029942;28;20179;-66
2021/04/21 11:31:42;;;;;;;6.93;5.17;;;17.90;52.30;;;;;;5052064;28;20202;-66
2021/04/21 11:34:21;;;;;;;7.90;5.20;;;17.90;51.70;;;;;;5044543;28;20186;-66
2021/04/21 11:36:47;;;;;;;5.50;4.77;;;17.80;51.60;;;;;;5050753;28;20692;-66
2021/04/21 11:39:13;;;;;;;5.80;4.27;;;17.80;50.80;;;;;;5047308;28;20191;-65
2021/04/21 11:41:46;;;;;;;4.73;3.90;;;17.70;50.00;;;;;;5051131;28;20676;-68
2021/04/21 11:44:49;;;;;;;4.57;3.43;;;17.80;50.30;;;;;;5051560;28;20171;-65
2021/04/21 11:47:36;;;;;;;3.90;3.43;;;17.70;49.80;;;;;;5051032;28;20181;-67
2021/04/21 11:50:14;;;;;;;5.17;3.80;;;17.60;49.80;;;;;;5049788;28;20202;-69
2021/04/21 11:52:56;;;;;;;5.77;4.20;;;17.60;50.00;;;;;;5048243;28;20171;-66
2021/04/21 11:55:45;;;;;;;3.77;3.37;;;17.60;49.90;;;;;;5024904;28;20180;-66
2021/04/21 11:58:10;;;;;;;4.50;3.90;;;17.50;50.00;;;;;;5039886;28;20207;-65
2021/04/21 12:00:56;;;;;;;5.67;3.70;;;17.50;50.10;;;;;;5050786;28;20267;-68
2021/04/21 12:03:26;;;;;;;4.27;3.87;;;17.50;50.50;;;;;;5045740;28;20206;-66
2021/04/21 12:05:57;;;;;;;7.27;4.37;;;17.60;50.40;;;;;;5044551;28;20308;-65
2021/04/21 12:08:26;;;;;;;6.63;5.77;;;17.70;50.60;;;;;;5046507;28;20174;-68
2021/04/21 12:10:52;;;;;;;8.63;7.73;;;17.80;51.00;;;;;;5051271;28;20209;-66
2021/04/21 12:13:30;;;;;;;11.00;8.63;;;17.80;50.50;;;;;;5042025;28;20572;-65
2021/04/21 12:15:59;;;;;;;10.17;8.47;;;17.90;50.80;;;;;;5048887;28;20198;-65
2021/04/21 12:18:33;;;;;;;9.10;8.20;;;18.00;50.10;;;;;;5047216;28;20209;-66
2021/04/21 12:21:05;;;;;;;11.17;7.20;;;18.10;49.00;;;;;;5050974;28;20170;-64
2021/04/21 12:23:33;;;;;;;8.70;7.63;;;18.10;49.40;;;;;;5045021;28;20306;-66
2021/04/21 12:26:00;;;;;;;7.60;6.77;;;18.10;50.50;;;;;;5051611;28;20182;-66
2021/04/21 12:28:26;;;;;;;8.07;6.40;;;18.20;50.20;;;;;;5028434;28;20194;-67
2021/04/21 12:30:59;;;;;;;8.50;7.03;;;18.20;49.90;;;;;;5047999;28;20178;-67
2021/04/21 12:33:26;;;;;;;7.70;6.90;;;18.30;49.50;;;;;;5050655;28;20187;-64
2021/04/21 12:35:56;;;;;;;11.53;8.87;;;18.50;50.30;;;;;;5018054;28;20216;-67
2021/04/21 12:38:27;;;;;;;9.57;7.53;;;18.80;49.20;;;;;;5045283;28;20297;-67
2021/04/21 12:40:53;;;;;;;9.73;8.67;;;19.00;49.20;;;;;;5050073;28;20195;-65
2021/04/21 12:43:19;;;;;;;12.43;9.03;;;19.40;47.70;;;;;;5051987;28;20262;-66
2021/04/21 12:45:45;;;;;;;11.00;9.20;;;19.70;47.10;;;;;;5050297;28;20232;-66
2021/04/21 12:48:25;;;;;;;11.97;8.83;;;19.90;47.50;;;;;;5050186;28;20526;-68
2021/04/21 12:50:53;;;;;;;11.10;8.73;;;20.20;47.40;;;;;;5048248;28;20258;-66
2021/04/21 12:53:20;;;;;;;13.53;10.00;;;20.50;47.20;;;;;;5048845;28;20249;-64
2021/04/21 12:56:02;;;;;;;10.50;9.33;;;20.70;44.60;;;;;;5051878;28;20233;-65
2021/04/21 12:58:32;;;;;;;11.47;9.53;;;20.70;44.50;;;;;;5051705;28;20305;-67
2021/04/21 13:01:13;;;;;;;11.53;10.33;;;20.80;44.80;;;;;;5050006;28;20580;-64
2021/04/21 13:03:54;;;;;;;9.30;7.97;;;20.80;42.80;;;;;;5041984;28;20182;-67
2021/04/21 13:06:38;;;;;;;11.90;9.77;;;20.80;44.80;;;;;;5051600;28;20641;-66
2021/04/21 13:09:09;;;;;;;13.27;9.13;;;20.60;43.80;;;;;;5044926;28;20174;-65
2021/04/21 13:11:35;;;;;;;12.53;8.90;;;20.40;44.60;;;;;;5030889;28;20172;-66